createdAt,value
2022-08-31T00:00:39.847Z,0.00
2022-08-31T00:01:39.843Z,0.00
2022-08-31T00:02:39.826Z,0.00
2022-08-31T00:03:39.813Z,0.00
2022-08-31T00:04:39.912Z,0.00
2022-08-31T00:05:39.790Z,0.00
2022-08-31T00:06:39.785Z,0.00
2022-08-31T00:07:40.362Z,0.00
2022-08-31T00:08:39.760Z,0.00
2022-08-31T00:09:39.741Z,0.00
2022-08-31T00:10:39.771Z,0.00
2022-08-31T00:11:39.731Z,0.00
2022-08-31T00:12:39.723Z,0.00
2022-08-31T00:13:39.709Z,0.00
2022-08-31T00:14:39.709Z,0.00
2022-08-31T00:15:39.747Z,0.00
2022-08-31T00:16:39.745Z,0.00
2022-08-31T00:17:39.674Z,0.00
2022-08-31T00:18:39.667Z,0.00
2022-08-31T00:19:39.656Z,0.00
2022-08-31T00:20:39.638Z,0.00
2022-08-31T00:21:39.666Z,0.00
2022-08-31T00:22:39.624Z,0.00
2022-08-31T00:23:39.613Z,0.00
2022-08-31T00:24:39.602Z,0.00
2022-08-31T00:25:39.593Z,0.00
2022-08-31T00:26:39.639Z,0.00
2022-08-31T00:27:39.574Z,0.00
2022-08-31T00:28:39.569Z,0.00
2022-08-31T00:29:39.556Z,0.00
2022-08-31T00:30:39.546Z,0.00
2022-08-31T00:31:39.586Z,0.00
2022-08-31T00:32:40.558Z,0.00
2022-08-31T00:33:39.514Z,0.00
2022-08-31T00:34:39.545Z,0.00
2022-08-31T00:35:39.534Z,0.00
2022-08-31T00:36:39.487Z,0.00
2022-08-31T00:37:39.510Z,0.00
2022-08-31T00:38:39.466Z,0.00
2022-08-31T00:39:39.455Z,0.00
2022-08-31T00:40:44.480Z,0.00
2022-08-31T00:41:40.439Z,0.00
2022-08-31T00:42:39.432Z,0.00
2022-08-31T00:43:39.457Z,0.00
2022-08-31T00:44:39.409Z,0.00
2022-08-31T00:45:39.453Z,0.00
2022-08-31T00:46:39.422Z,0.00
2022-08-31T00:47:39.384Z,0.00
2022-08-31T00:48:39.417Z,0.00
2022-08-31T00:49:39.362Z,0.00
2022-08-31T00:50:39.348Z,0.00
2022-08-31T00:51:39.339Z,0.00
2022-08-31T00:52:39.332Z,0.00
2022-08-31T00:53:39.317Z,0.00
2022-08-31T00:54:39.337Z,0.00
2022-08-31T00:55:39.360Z,0.00
2022-08-31T00:56:39.289Z,0.00
2022-08-31T00:57:39.279Z,0.00
2022-08-31T00:58:39.267Z,0.00
2022-08-31T00:59:39.305Z,0.00
2022-08-31T01:00:39.307Z,0.00
2022-08-31T01:01:39.235Z,0.00
2022-08-31T01:02:39.340Z,0.00
2022-08-31T01:03:39.217Z,0.00
2022-08-31T01:04:39.209Z,0.00
2022-08-31T01:05:39.247Z,0.00
2022-08-31T01:06:39.189Z,0.00
2022-08-31T01:07:39.185Z,0.00
2022-08-31T01:08:39.174Z,0.00
2022-08-31T01:09:39.165Z,0.00
2022-08-31T01:10:39.190Z,0.00
2022-08-31T01:11:39.138Z,0.00
2022-08-31T01:12:39.128Z,0.00
2022-08-31T01:13:39.119Z,0.00
2022-08-31T01:14:39.112Z,0.00
2022-08-31T01:15:39.098Z,0.00
2022-08-31T01:16:39.178Z,0.00
2022-08-31T01:17:39.080Z,0.00
2022-08-31T01:18:39.070Z,0.00
2022-08-31T01:19:39.059Z,0.00
2022-08-31T01:20:39.050Z,0.00
2022-08-31T01:21:40.068Z,0.00
2022-08-31T01:22:39.030Z,0.00
2022-08-31T01:23:39.015Z,0.00
2022-08-31T01:24:39.051Z,0.00
2022-08-31T01:25:39.024Z,0.00
2022-08-31T01:26:39.026Z,0.00
2022-08-31T01:27:39.032Z,0.00
2022-08-31T01:28:38.977Z,0.00
2022-08-31T01:29:38.967Z,0.00
2022-08-31T01:30:38.960Z,0.00
2022-08-31T01:31:39.012Z,0.00
2022-08-31T01:32:39.018Z,0.00
2022-08-31T01:33:38.922Z,0.00
2022-08-31T01:34:38.900Z,0.00
2022-08-31T01:35:38.897Z,0.00
2022-08-31T01:36:38.883Z,0.00
2022-08-31T01:37:38.883Z,0.00
2022-08-31T01:38:38.898Z,0.00
2022-08-31T01:39:38.852Z,0.00
2022-08-31T01:40:38.929Z,0.00
2022-08-31T01:41:38.834Z,0.00
2022-08-31T01:42:38.822Z,0.00
2022-08-31T01:43:38.857Z,0.00
2022-08-31T01:44:38.806Z,0.00
2022-08-31T01:45:38.791Z,0.00
2022-08-31T01:46:38.816Z,0.00
2022-08-31T01:47:38.776Z,0.00
2022-08-31T01:48:41.184Z,0.00
2022-08-31T01:49:38.785Z,0.00
2022-08-31T01:50:38.744Z,0.00
2022-08-31T01:51:38.734Z,0.00
2022-08-31T01:52:38.727Z,0.00
2022-08-31T01:53:38.712Z,0.00
2022-08-31T01:54:38.730Z,0.00
2022-08-31T01:55:38.695Z,0.00
2022-08-31T01:56:38.681Z,0.00
2022-08-31T01:57:38.673Z,0.00
2022-08-31T01:58:38.662Z,0.00
2022-08-31T01:59:38.653Z,0.00
2022-08-31T02:00:38.736Z,0.00
2022-08-31T02:01:38.785Z,0.00
2022-08-31T02:02:38.680Z,0.00
2022-08-31T02:03:38.616Z,0.00
2022-08-31T02:04:38.609Z,0.00
2022-08-31T02:05:38.656Z,0.00
2022-08-31T02:06:38.586Z,0.00
2022-08-31T02:07:38.599Z,0.00
2022-08-31T02:08:38.566Z,0.00
2022-08-31T02:09:38.555Z,0.00
2022-08-31T02:10:38.545Z,0.00
2022-08-31T02:11:38.563Z,0.00
2022-08-31T02:12:38.530Z,0.00
2022-08-31T02:13:38.520Z,0.00
2022-08-31T02:14:38.505Z,0.00
2022-08-31T02:15:38.520Z,0.00
2022-08-31T02:16:38.556Z,0.00
2022-08-31T02:17:38.516Z,0.00
2022-08-31T02:18:38.471Z,0.00
2022-08-31T02:19:38.457Z,0.00
2022-08-31T02:20:38.448Z,0.00
2022-08-31T02:21:38.441Z,0.00
2022-08-31T02:22:38.457Z,0.00
2022-08-31T02:23:38.416Z,0.00
2022-08-31T02:24:38.407Z,0.00
2022-08-31T02:25:38.402Z,0.00
2022-08-31T02:26:38.386Z,0.00
2022-08-31T02:27:38.410Z,0.00
2022-08-31T02:28:38.365Z,0.00
2022-08-31T02:29:38.357Z,0.00
2022-08-31T02:30:38.341Z,0.00
2022-08-31T02:31:38.440Z,0.00
2022-08-31T02:32:38.325Z,0.00
2022-08-31T02:33:38.343Z,0.00
2022-08-31T02:34:38.304Z,0.00
2022-08-31T02:35:38.294Z,0.00
2022-08-31T02:36:38.285Z,0.00
2022-08-31T02:37:38.275Z,0.00
2022-08-31T02:38:38.282Z,0.00
2022-08-31T02:39:38.250Z,0.00
2022-08-31T02:40:38.292Z,0.00
2022-08-31T02:41:38.231Z,0.00
2022-08-31T02:42:52.199Z,0.00
2022-08-31T02:43:39.209Z,0.00
2022-08-31T02:44:38.198Z,0.00
2022-08-31T02:45:38.192Z,0.00
2022-08-31T02:46:38.233Z,0.00
2022-08-31T02:47:38.212Z,0.00
2022-08-31T02:48:38.161Z,0.00
2022-08-31T02:49:38.153Z,0.00
2022-08-31T02:50:38.143Z,0.00
2022-08-31T02:51:38.130Z,0.00
2022-08-31T02:52:38.143Z,0.00
2022-08-31T02:53:38.115Z,0.00
2022-08-31T02:54:38.110Z,0.00
2022-08-31T02:55:38.096Z,0.00
2022-08-31T02:56:38.082Z,0.00
2022-08-31T02:57:39.147Z,0.00
2022-08-31T02:58:38.065Z,0.00
2022-08-31T02:59:38.057Z,0.00
2022-08-31T03:00:38.051Z,0.00
2022-08-31T03:01:38.063Z,0.00
2022-08-31T03:02:38.050Z,0.00
2022-08-31T03:03:38.060Z,0.00
2022-08-31T03:04:38.026Z,0.00
2022-08-31T03:05:38.002Z,0.00
2022-08-31T03:06:37.998Z,0.00
2022-08-31T03:07:37.981Z,0.00
2022-08-31T03:08:37.999Z,0.00
2022-08-31T03:09:37.961Z,0.00
2022-08-31T03:10:37.951Z,0.00
2022-08-31T03:11:37.947Z,0.00
2022-08-31T03:12:37.936Z,0.00
2022-08-31T03:13:37.931Z,0.00
2022-08-31T03:14:37.959Z,0.00
2022-08-31T03:15:37.939Z,0.00
2022-08-31T03:16:37.892Z,0.00
2022-08-31T03:17:37.880Z,0.00
2022-08-31T03:18:37.875Z,0.00
2022-08-31T03:19:37.907Z,0.00
2022-08-31T03:20:37.859Z,0.00
2022-08-31T03:21:37.874Z,0.00
2022-08-31T03:22:37.839Z,0.00
2022-08-31T03:23:37.827Z,0.00
2022-08-31T03:24:37.815Z,0.00
2022-08-31T03:25:38.126Z,0.00
2022-08-31T03:26:37.798Z,0.00
2022-08-31T03:27:37.796Z,0.00
2022-08-31T03:28:37.780Z,0.00
2022-08-31T03:29:37.768Z,0.00
2022-08-31T03:30:37.798Z,0.00
2022-08-31T03:31:37.799Z,0.00
2022-08-31T03:32:37.750Z,0.00
2022-08-31T03:33:37.728Z,0.00
2022-08-31T03:34:37.719Z,0.00
2022-08-31T03:35:37.749Z,0.00
2022-08-31T03:36:37.696Z,0.00
2022-08-31T03:37:37.689Z,0.00
2022-08-31T03:38:37.679Z,0.00
2022-08-31T03:39:37.666Z,0.00
2022-08-31T03:40:37.703Z,0.00
2022-08-31T03:41:37.679Z,0.00
2022-08-31T03:42:37.641Z,0.00
2022-08-31T03:43:37.629Z,0.00
2022-08-31T03:44:37.621Z,0.00
2022-08-31T03:45:37.610Z,0.00
2022-08-31T03:46:37.715Z,0.00
2022-08-31T03:47:42.718Z,0.00
2022-08-31T03:48:38.585Z,0.00
2022-08-31T03:49:37.566Z,0.00
2022-08-31T03:50:37.562Z,0.00
2022-08-31T03:51:37.538Z,0.00
2022-08-31T03:52:38.567Z,0.00
2022-08-31T03:53:37.524Z,0.00
2022-08-31T03:54:37.521Z,0.00
2022-08-31T03:55:37.532Z,0.00
2022-08-31T03:56:37.503Z,0.00
2022-08-31T03:57:37.505Z,0.00
2022-08-31T03:58:37.494Z,0.00
2022-08-31T03:59:37.465Z,0.00
2022-08-31T04:00:37.458Z,0.00
2022-08-31T04:01:37.522Z,0.00
2022-08-31T04:02:37.783Z,0.00
2022-08-31T04:03:38.443Z,0.00
2022-08-31T04:04:37.421Z,0.00
2022-08-31T04:05:37.409Z,0.00
2022-08-31T04:06:37.399Z,0.00
2022-08-31T04:07:42.413Z,0.00
2022-08-31T04:08:38.396Z,0.00
2022-08-31T04:09:37.370Z,0.00
2022-08-31T04:10:37.362Z,0.00
2022-08-31T04:11:45.470Z,0.00
2022-08-31T04:12:38.366Z,0.00
2022-08-31T04:13:37.330Z,0.00
2022-08-31T04:14:37.325Z,0.00
2022-08-31T04:15:37.354Z,0.00
2022-08-31T04:16:37.301Z,0.00
2022-08-31T04:17:37.294Z,0.00
2022-08-31T04:18:37.317Z,0.00
2022-08-31T04:19:37.272Z,0.00
2022-08-31T04:20:37.260Z,0.00
2022-08-31T04:21:37.250Z,0.00
2022-08-31T04:22:37.244Z,0.00
2022-08-31T04:23:37.273Z,0.00
2022-08-31T04:24:37.227Z,0.00
2022-08-31T04:25:37.210Z,0.00
2022-08-31T04:26:37.219Z,0.00
2022-08-31T04:27:37.190Z,0.00
2022-08-31T04:28:37.185Z,0.00
2022-08-31T04:29:37.198Z,0.00
2022-08-31T04:30:37.230Z,0.00
2022-08-31T04:31:37.151Z,0.00
2022-08-31T04:32:37.143Z,0.00
2022-08-31T04:33:37.132Z,0.00
2022-08-31T04:34:37.162Z,0.00
2022-08-31T04:35:37.115Z,0.00
2022-08-31T04:36:37.101Z,0.00
2022-08-31T04:37:37.092Z,0.00
2022-08-31T04:38:37.082Z,0.00
2022-08-31T04:39:49.451Z,0.00
2022-08-31T04:40:38.106Z,0.00
2022-08-31T04:41:37.052Z,0.00
2022-08-31T04:42:37.046Z,0.00
2022-08-31T04:43:37.033Z,0.00
2022-08-31T04:44:37.023Z,0.00
2022-08-31T04:45:37.070Z,5.62
2022-08-31T04:46:37.004Z,5.62
2022-08-31T04:47:36.992Z,5.62
2022-08-31T04:48:36.983Z,5.62
2022-08-31T04:49:36.976Z,5.62
2022-08-31T04:50:41.831Z,5.62
2022-08-31T04:51:38.952Z,5.62
2022-08-31T04:52:36.944Z,5.62
2022-08-31T04:53:36.933Z,11.25
2022-08-31T04:54:36.928Z,11.25
2022-08-31T04:55:36.943Z,11.25
2022-08-31T04:56:36.912Z,11.25
2022-08-31T04:57:36.896Z,11.25
2022-08-31T04:58:36.881Z,11.25
2022-08-31T04:59:36.868Z,16.88
2022-08-31T05:00:36.868Z,16.88
2022-08-31T05:02:08.839Z,16.88
2022-08-31T05:02:37.019Z,16.88
2022-08-31T05:03:36.833Z,16.88
2022-08-31T05:04:36.824Z,16.88
2022-08-31T05:05:36.812Z,22.50
2022-08-31T05:06:36.841Z,22.50
2022-08-31T05:07:36.799Z,22.50
2022-08-31T05:08:36.788Z,22.50
2022-08-31T05:09:36.782Z,22.50
2022-08-31T05:10:36.771Z,22.50
2022-08-31T05:11:36.799Z,22.50
2022-08-31T05:12:36.746Z,28.12
2022-08-31T05:13:36.736Z,28.12
2022-08-31T05:14:37.202Z,28.12
2022-08-31T05:15:36.773Z,28.12
2022-08-31T05:16:36.705Z,28.12
2022-08-31T05:17:36.719Z,33.75
2022-08-31T05:18:36.685Z,33.75
2022-08-31T05:19:40.922Z,33.75
2022-08-31T05:20:37.657Z,33.75
2022-08-31T05:21:36.651Z,33.75
2022-08-31T05:22:36.672Z,39.38
2022-08-31T05:23:36.634Z,39.38
2022-08-31T05:24:36.619Z,39.38
2022-08-31T05:25:36.610Z,39.38
2022-08-31T05:26:36.599Z,45.00
2022-08-31T05:27:36.620Z,45.00
2022-08-31T05:28:36.576Z,45.00
2022-08-31T05:29:36.567Z,45.00
2022-08-31T05:30:36.730Z,45.00
2022-08-31T05:31:36.545Z,50.62
2022-08-31T05:32:37.838Z,50.62
2022-08-31T05:33:36.570Z,50.62
2022-08-31T05:34:36.517Z,50.62
2022-08-31T05:35:36.511Z,50.62
2022-08-31T05:36:36.498Z,56.25
2022-08-31T05:37:36.485Z,56.25
2022-08-31T05:38:37.509Z,56.25
2022-08-31T05:39:36.468Z,56.25
2022-08-31T05:40:36.476Z,61.88
2022-08-31T05:41:36.472Z,61.88
2022-08-31T05:42:36.450Z,61.88
2022-08-31T05:43:36.454Z,67.50
2022-08-31T05:44:36.434Z,67.50
2022-08-31T05:45:36.409Z,67.50
2022-08-31T05:46:36.466Z,67.50
2022-08-31T05:47:36.425Z,67.50
2022-08-31T05:48:36.393Z,73.12
2022-08-31T05:49:36.389Z,73.12
2022-08-31T05:50:36.363Z,73.12
2022-08-31T05:51:38.388Z,73.12
2022-08-31T05:52:37.345Z,73.12
2022-08-31T05:53:36.365Z,73.12
2022-08-31T05:54:36.336Z,78.75
2022-08-31T05:55:36.314Z,78.75
2022-08-31T05:56:36.305Z,78.75
2022-08-31T05:57:36.317Z,78.75
2022-08-31T05:58:36.297Z,84.38
2022-08-31T05:59:36.297Z,84.38
2022-08-31T06:00:36.266Z,84.38
2022-08-31T06:01:36.302Z,84.38
2022-08-31T06:02:36.245Z,90.00
2022-08-31T06:03:36.253Z,90.00
2022-08-31T06:04:36.249Z,90.00
2022-08-31T06:05:36.294Z,90.00
2022-08-31T06:06:36.206Z,90.00
2022-08-31T06:07:36.197Z,90.00
2022-08-31T06:08:36.228Z,90.00
2022-08-31T06:09:36.191Z,90.00
2022-08-31T06:10:36.176Z,90.00
2022-08-31T06:11:36.155Z,90.00
2022-08-31T06:12:36.147Z,90.00
2022-08-31T06:13:36.135Z,90.00
2022-08-31T06:14:36.503Z,90.00
2022-08-31T06:15:36.117Z,95.62
2022-08-31T06:16:37.141Z,95.62
2022-08-31T06:17:36.095Z,95.62
2022-08-31T06:18:36.086Z,95.62
2022-08-31T06:19:36.092Z,95.62
2022-08-31T06:20:36.069Z,95.62
2022-08-31T06:21:36.052Z,95.62
2022-08-31T06:22:36.049Z,95.62
2022-08-31T06:23:36.037Z,95.62
2022-08-31T06:24:36.065Z,101.25
2022-08-31T06:25:36.022Z,101.25
2022-08-31T06:26:36.005Z,101.25
2022-08-31T06:27:35.991Z,101.25
2022-08-31T06:28:35.986Z,95.62
2022-08-31T06:29:36.003Z,101.25
2022-08-31T06:30:38.592Z,101.25
2022-08-31T06:31:38.060Z,112.50
2022-08-31T06:32:35.943Z,106.88
2022-08-31T06:33:35.935Z,106.88
2022-08-31T06:34:35.927Z,106.88
2022-08-31T06:35:35.958Z,106.88
2022-08-31T06:36:35.909Z,112.50
2022-08-31T06:37:35.892Z,106.88
2022-08-31T06:38:35.891Z,112.50
2022-08-31T06:39:35.878Z,118.12
2022-08-31T06:40:35.950Z,123.75
2022-08-31T06:41:36.920Z,135.00
2022-08-31T06:42:36.850Z,140.62
2022-08-31T06:43:35.839Z,140.62
2022-08-31T06:44:35.826Z,168.75
2022-08-31T06:45:35.819Z,180.00
2022-08-31T06:46:35.908Z,185.62
2022-08-31T06:47:35.811Z,174.38
2022-08-31T06:48:35.797Z,180.00
2022-08-31T06:49:35.781Z,157.50
2022-08-31T06:50:35.768Z,168.75
2022-08-31T06:51:35.802Z,151.88
2022-08-31T06:52:38.801Z,135.00
2022-08-31T06:53:36.742Z,135.00
2022-08-31T06:54:35.792Z,135.00
2022-08-31T06:55:35.721Z,135.00
2022-08-31T06:56:35.744Z,135.00
2022-08-31T06:57:35.706Z,135.00
2022-08-31T06:58:35.695Z,135.00
2022-08-31T06:59:35.678Z,135.00
2022-08-31T07:00:35.674Z,135.00
2022-08-31T07:01:36.384Z,140.62
2022-08-31T07:02:35.779Z,135.00
2022-08-31T07:03:35.649Z,146.25
2022-08-31T07:04:35.635Z,146.25
2022-08-31T07:05:35.630Z,157.50
2022-08-31T07:06:35.614Z,157.50
2022-08-31T07:07:35.635Z,157.50
2022-08-31T07:08:35.600Z,163.12
2022-08-31T07:09:35.587Z,168.75
2022-08-31T07:10:35.574Z,180.00
2022-08-31T07:11:35.562Z,191.25
2022-08-31T07:12:35.553Z,185.62
2022-08-31T07:13:35.573Z,326.25
2022-08-31T07:14:35.537Z,399.38
2022-08-31T07:15:35.526Z,472.50
2022-08-31T07:16:35.629Z,568.12
2022-08-31T07:17:35.512Z,641.25
2022-08-31T07:18:35.530Z,691.88
2022-08-31T07:19:35.490Z,675.00
2022-08-31T07:20:35.495Z,500.62
2022-08-31T07:21:35.475Z,433.12
2022-08-31T07:22:35.465Z,624.38
2022-08-31T07:23:35.448Z,736.88
2022-08-31T07:24:35.479Z,776.25
2022-08-31T07:25:35.427Z,753.75
2022-08-31T07:26:36.564Z,399.38
2022-08-31T07:27:36.418Z,540.00
2022-08-31T07:28:35.401Z,551.25
2022-08-31T07:29:35.438Z,309.38
2022-08-31T07:30:35.413Z,376.88
2022-08-31T07:31:35.371Z,264.38
2022-08-31T07:32:35.357Z,264.38
2022-08-31T07:33:35.349Z,253.12
2022-08-31T07:34:35.355Z,247.50
2022-08-31T07:35:35.327Z,247.50
2022-08-31T07:36:35.319Z,241.88
2022-08-31T07:37:35.306Z,236.25
2022-08-31T07:38:35.299Z,236.25
2022-08-31T07:39:35.316Z,236.25
2022-08-31T07:40:35.332Z,236.25
2022-08-31T07:41:35.270Z,241.88
2022-08-31T07:42:35.262Z,241.88
2022-08-31T07:43:35.250Z,236.25
2022-08-31T07:44:35.268Z,236.25
2022-08-31T07:45:37.791Z,236.25
2022-08-31T07:46:36.278Z,236.25
2022-08-31T07:47:35.207Z,241.88
2022-08-31T07:48:35.197Z,241.88
2022-08-31T07:49:35.190Z,247.50
2022-08-31T07:50:35.195Z,247.50
2022-08-31T07:51:35.168Z,247.50
2022-08-31T07:52:35.166Z,253.12
2022-08-31T07:53:35.177Z,253.12
2022-08-31T07:54:35.133Z,253.12
2022-08-31T07:55:35.141Z,253.12
2022-08-31T07:56:35.230Z,253.12
2022-08-31T07:57:35.103Z,258.75
2022-08-31T07:58:35.095Z,258.75
2022-08-31T07:59:35.090Z,258.75
2022-08-31T08:00:35.098Z,258.75
2022-08-31T08:01:36.033Z,258.75
2022-08-31T08:02:35.203Z,258.75
2022-08-31T08:03:35.047Z,258.75
2022-08-31T08:04:35.038Z,258.75
2022-08-31T08:05:35.441Z,264.38
2022-08-31T08:06:35.016Z,264.38
2022-08-31T08:07:35.009Z,264.38
2022-08-31T08:08:34.997Z,264.38
2022-08-31T08:09:34.987Z,270.00
2022-08-31T08:10:35.071Z,270.00
2022-08-31T08:11:34.973Z,275.62
2022-08-31T08:12:34.958Z,275.62
2022-08-31T08:13:34.948Z,281.25
2022-08-31T08:14:34.937Z,281.25
2022-08-31T08:15:35.509Z,286.88
2022-08-31T08:16:34.994Z,286.88
2022-08-31T08:17:34.905Z,286.88
2022-08-31T08:18:34.893Z,286.88
2022-08-31T08:19:34.882Z,286.88
2022-08-31T08:20:38.583Z,281.25
2022-08-31T08:21:34.881Z,281.25
2022-08-31T08:22:50.741Z,281.25
2022-08-31T08:23:36.854Z,281.25
2022-08-31T08:24:34.836Z,275.62
2022-08-31T08:25:34.828Z,270.00
2022-08-31T08:26:34.865Z,270.00
2022-08-31T08:27:34.805Z,275.62
2022-08-31T08:28:41.839Z,286.88
2022-08-31T08:29:36.799Z,286.88
2022-08-31T08:30:34.772Z,292.50
2022-08-31T08:31:34.844Z,298.12
2022-08-31T08:32:34.789Z,298.12
2022-08-31T08:33:34.751Z,292.50
2022-08-31T08:34:34.738Z,292.50
2022-08-31T08:35:34.731Z,281.25
2022-08-31T08:36:34.720Z,275.62
2022-08-31T08:37:56.548Z,275.62
2022-08-31T08:38:36.702Z,286.88
2022-08-31T08:39:34.686Z,298.12
2022-08-31T08:40:34.798Z,298.12
2022-08-31T08:41:35.601Z,309.38
2022-08-31T08:42:34.677Z,326.25
2022-08-31T08:43:34.648Z,315.00
2022-08-31T08:44:34.636Z,320.62
2022-08-31T08:45:34.677Z,320.62
2022-08-31T08:46:35.682Z,326.25
2022-08-31T08:47:38.072Z,320.62
2022-08-31T08:48:34.619Z,320.62
2022-08-31T08:49:34.592Z,326.25
2022-08-31T08:50:34.584Z,326.25
2022-08-31T08:51:34.576Z,326.25
2022-08-31T08:52:34.566Z,331.88
2022-08-31T08:53:35.572Z,331.88
2022-08-31T08:54:34.547Z,331.88
2022-08-31T08:55:34.531Z,331.88
2022-08-31T08:56:34.528Z,326.25
2022-08-31T08:57:34.527Z,331.88
2022-08-31T08:58:34.535Z,337.50
2022-08-31T08:59:34.493Z,337.50
2022-08-31T09:00:34.486Z,337.50
2022-08-31T09:01:34.520Z,337.50
2022-08-31T09:02:34.519Z,343.12
2022-08-31T09:03:34.473Z,343.12
2022-08-31T09:04:34.444Z,343.12
2022-08-31T09:05:34.435Z,348.75
2022-08-31T09:06:46.468Z,348.75
2022-08-31T09:07:35.456Z,343.12
2022-08-31T09:08:34.402Z,343.12
2022-08-31T09:09:34.440Z,348.75
2022-08-31T09:10:34.382Z,348.75
2022-08-31T09:11:34.400Z,343.12
2022-08-31T09:12:34.362Z,337.50
2022-08-31T09:13:34.372Z,343.12
2022-08-31T09:14:34.345Z,343.12
2022-08-31T09:15:34.335Z,343.12
2022-08-31T09:16:34.384Z,337.50
2022-08-31T09:17:34.320Z,337.50
2022-08-31T09:18:34.324Z,331.88
2022-08-31T09:19:34.299Z,331.88
2022-08-31T09:20:34.286Z,320.62
2022-08-31T09:21:34.274Z,315.00
2022-08-31T09:22:34.267Z,320.62
2022-08-31T09:23:34.297Z,337.50
2022-08-31T09:24:34.245Z,337.50
2022-08-31T09:25:34.240Z,320.62
2022-08-31T09:26:34.236Z,315.00
2022-08-31T09:27:34.216Z,298.12
2022-08-31T09:28:34.237Z,303.75
2022-08-31T09:29:34.198Z,292.50
2022-08-31T09:30:34.188Z,264.38
2022-08-31T09:31:34.258Z,258.75
2022-08-31T09:32:34.170Z,253.12
2022-08-31T09:33:34.159Z,275.62
2022-08-31T09:34:34.184Z,292.50
2022-08-31T09:35:34.133Z,320.62
2022-08-31T09:36:34.126Z,309.38
2022-08-31T09:37:34.119Z,326.25
2022-08-31T09:38:34.110Z,315.00
2022-08-31T09:39:37.249Z,320.62
2022-08-31T09:40:34.172Z,348.75
2022-08-31T09:41:34.076Z,354.38
2022-08-31T09:42:34.148Z,354.38
2022-08-31T09:43:34.059Z,337.50
2022-08-31T09:44:34.070Z,348.75
2022-08-31T09:45:34.082Z,315.00
2022-08-31T09:46:34.033Z,309.38
2022-08-31T09:47:34.023Z,348.75
2022-08-31T09:48:34.010Z,393.75
2022-08-31T09:49:34.019Z,382.50
2022-08-31T09:50:33.991Z,371.25
2022-08-31T09:51:33.984Z,360.00
2022-08-31T09:52:33.972Z,360.00
2022-08-31T09:53:33.973Z,354.38
2022-08-31T09:54:33.988Z,354.38
2022-08-31T09:55:33.943Z,348.75
2022-08-31T09:56:33.934Z,348.75
2022-08-31T09:57:33.925Z,343.12
2022-08-31T09:58:33.914Z,337.50
2022-08-31T09:59:33.946Z,331.88
2022-08-31T10:00:33.890Z,315.00
2022-08-31T10:01:33.923Z,298.12
2022-08-31T10:02:33.871Z,298.12
2022-08-31T10:03:33.861Z,326.25
2022-08-31T10:04:33.849Z,326.25
2022-08-31T10:05:33.891Z,331.88
2022-08-31T10:06:33.845Z,337.50
2022-08-31T10:07:33.824Z,354.38
2022-08-31T10:08:33.816Z,343.12
2022-08-31T10:09:33.805Z,331.88
2022-08-31T10:10:33.838Z,337.50
2022-08-31T10:11:33.783Z,326.25
2022-08-31T10:12:33.774Z,309.38
2022-08-31T10:13:33.763Z,320.62
2022-08-31T10:14:33.753Z,337.50
2022-08-31T10:15:33.829Z,348.75
2022-08-31T10:16:33.744Z,348.75
2022-08-31T10:17:33.740Z,365.62
2022-08-31T10:18:33.707Z,360.00
2022-08-31T10:19:33.701Z,326.25
2022-08-31T10:20:33.720Z,264.38
2022-08-31T10:21:33.681Z,303.75
2022-08-31T10:24:18.809Z,438.75
2022-08-31T10:25:18.817Z,455.62
2022-08-31T10:26:18.833Z,410.62
2022-08-31T10:27:18.799Z,253.12
2022-08-31T10:28:18.797Z,416.25
2022-08-31T10:29:23.171Z,433.12
2022-08-31T10:30:19.914Z,388.12
2022-08-31T10:31:19.953Z,337.50
2022-08-31T10:32:19.887Z,208.12
2022-08-31T10:33:20.035Z,202.50
2022-08-31T10:34:19.864Z,382.50
2022-08-31T10:35:19.856Z,450.00
2022-08-31T10:36:19.880Z,444.38
2022-08-31T10:37:19.839Z,371.25
2022-08-31T10:38:20.407Z,393.75
2022-08-31T10:39:20.820Z,540.00
2022-08-31T10:40:19.854Z,562.50
2022-08-31T10:41:19.824Z,528.75
2022-08-31T10:42:19.786Z,663.75
2022-08-31T10:43:19.962Z,624.38
2022-08-31T10:44:19.770Z,658.12
2022-08-31T10:45:19.758Z,635.62
2022-08-31T10:46:19.786Z,506.25
2022-08-31T10:47:32.646Z,528.75
2022-08-31T10:48:20.727Z,590.62
2022-08-31T10:49:19.724Z,776.25
2022-08-31T10:50:19.727Z,798.75
2022-08-31T10:51:19.702Z,781.88
2022-08-31T10:52:19.708Z,579.38
2022-08-31T10:53:19.911Z,270.00
2022-08-31T10:54:19.677Z,410.62
2022-08-31T10:55:19.672Z,354.38
2022-08-31T10:56:19.652Z,900.00
2022-08-31T10:57:22.325Z,1288.12
2022-08-31T10:58:19.649Z,1316.25
2022-08-31T10:59:19.630Z,1350.00
2022-08-31T11:00:19.625Z,1434.38
2022-08-31T11:01:19.696Z,1350.00
2022-08-31T11:02:51.514Z,888.75
2022-08-31T11:03:19.763Z,438.75
2022-08-31T11:04:19.618Z,652.50
2022-08-31T11:05:19.572Z,1153.12
2022-08-31T11:06:19.566Z,523.12
2022-08-31T11:07:19.556Z,1080.00
2022-08-31T11:08:19.569Z,714.38
2022-08-31T11:09:19.532Z,337.50
2022-08-31T11:10:19.524Z,360.00
2022-08-31T11:11:19.513Z,815.62
2022-08-31T11:12:19.502Z,354.38
2022-08-31T11:13:19.668Z,483.75
2022-08-31T11:14:19.486Z,298.12
2022-08-31T11:15:19.481Z,798.75
2022-08-31T11:16:19.483Z,753.75
2022-08-31T11:17:19.459Z,652.50
2022-08-31T11:18:19.500Z,607.50
2022-08-31T11:19:19.436Z,641.25
2022-08-31T11:20:19.427Z,810.00
2022-08-31T11:21:19.413Z,742.50
2022-08-31T11:22:19.410Z,714.38
2022-08-31T11:23:19.644Z,731.25
2022-08-31T11:24:19.387Z,748.12
2022-08-31T11:25:19.382Z,894.38
2022-08-31T11:26:19.365Z,759.38
2022-08-31T11:27:19.377Z,748.12
2022-08-31T11:28:19.341Z,663.75
2022-08-31T11:29:19.371Z,579.38
2022-08-31T11:30:19.324Z,562.50
2022-08-31T11:31:19.358Z,736.88
2022-08-31T11:32:19.306Z,815.62
2022-08-31T11:33:19.399Z,843.75
2022-08-31T11:34:19.301Z,759.38
2022-08-31T11:35:19.281Z,725.62
2022-08-31T11:36:19.278Z,770.62
2022-08-31T11:37:19.265Z,928.12
2022-08-31T11:38:19.251Z,950.62
2022-08-31T11:39:19.269Z,877.50
2022-08-31T11:40:19.310Z,984.38
2022-08-31T11:41:19.231Z,1147.50
2022-08-31T11:42:19.209Z,1130.62
2022-08-31T11:43:19.354Z,945.00
2022-08-31T11:44:19.226Z,714.38
2022-08-31T11:45:19.180Z,461.25
2022-08-31T11:46:19.250Z,742.50
2022-08-31T11:47:19.163Z,736.88
2022-08-31T11:48:19.151Z,1147.50
2022-08-31T11:49:19.141Z,427.50
2022-08-31T11:50:19.151Z,646.88
2022-08-31T11:51:19.123Z,1372.50
2022-08-31T11:52:19.139Z,1192.50
2022-08-31T11:53:19.202Z,241.88
2022-08-31T11:54:19.095Z,253.12
2022-08-31T11:55:19.100Z,270.00
2022-08-31T11:56:19.076Z,281.25
2022-08-31T11:57:19.067Z,298.12
2022-08-31T11:58:21.031Z,388.12
2022-08-31T11:59:19.044Z,680.62
2022-08-31T12:00:19.065Z,675.00
2022-08-31T12:01:19.025Z,624.38
2022-08-31T12:02:19.095Z,922.50
2022-08-31T12:03:19.115Z,753.75
2022-08-31T12:04:22.176Z,821.25
2022-08-31T12:05:20.050Z,860.62
2022-08-31T12:06:18.978Z,832.50
2022-08-31T12:07:18.968Z,922.50
2022-08-31T12:08:18.963Z,945.00
2022-08-31T12:09:18.944Z,866.25
2022-08-31T12:10:18.953Z,641.25
2022-08-31T12:11:18.945Z,736.88
2022-08-31T12:12:18.921Z,770.62
2022-08-31T12:13:19.246Z,787.50
2022-08-31T12:14:18.900Z,641.25
2022-08-31T12:15:18.923Z,691.88
2022-08-31T12:16:18.989Z,551.25
2022-08-31T12:17:18.904Z,669.38
2022-08-31T12:18:18.862Z,517.50
2022-08-31T12:19:18.850Z,551.25
2022-08-31T12:20:18.856Z,421.88
2022-08-31T12:21:18.849Z,517.50
2022-08-31T12:22:18.822Z,511.88
2022-08-31T12:23:30.008Z,596.25
2022-08-31T12:24:19.807Z,652.50
2022-08-31T12:25:18.809Z,663.75
2022-08-31T12:26:18.801Z,635.62
2022-08-31T12:27:18.778Z,388.12
2022-08-31T12:28:18.792Z,303.75
2022-08-31T12:29:19.757Z,270.00
2022-08-31T12:30:18.761Z,258.75
2022-08-31T12:31:18.828Z,253.12
2022-08-31T12:32:18.729Z,253.12
2022-08-31T12:33:18.797Z,270.00
2022-08-31T12:34:18.707Z,275.62
2022-08-31T12:35:18.707Z,320.62
2022-08-31T12:36:18.709Z,483.75
2022-08-31T12:37:18.678Z,416.25
2022-08-31T12:38:18.678Z,298.12
2022-08-31T12:39:18.661Z,275.62
2022-08-31T12:40:18.726Z,281.25
2022-08-31T12:41:22.151Z,275.62
2022-08-31T12:42:19.635Z,286.88
2022-08-31T12:43:18.822Z,292.50
2022-08-31T12:44:18.615Z,286.88
2022-08-31T12:45:18.622Z,281.25
2022-08-31T12:46:18.686Z,286.88
2022-08-31T12:47:22.311Z,253.12
2022-08-31T12:48:20.612Z,241.88
2022-08-31T12:49:18.563Z,241.88
2022-08-31T12:50:18.575Z,236.25
2022-08-31T12:51:18.574Z,236.25